Flight Track Log - Related Links

Times and Time Zones

All times are in EDT time to prevent confusion due to time zone crossing. See the SWA718 flight status page for this flight to view local times or setup timezone preferences in your user account.

Time Position Orientation Groundspeed Altitude Reporting Facility
EDT Latitude Longitude Course Direction KTS MPH feet Rate Location/Type
Mon 08:43:12 PM 28.4167 -81.3167 249° West 161 185 1,100  Level Orlando TRACON
Mon 08:44:06 PM 28.4000 -81.3667 249° West 224 258 2,900 2,632 Climbing Orlando TRACON
Mon 08:45:06 PM 28.4000 -81.4333 270° West 220 253 6,100 2,779 Climbing Orlando TRACON
Mon 08:47:16 PM 28.3958 -81.5947 268° West 247 284 11,700 2,400 Climbing Jacksonville Center
Mon 08:48:16 PM 28.3967 -81.6819 271° West 265 305 13,700 1,600 Climbing Jacksonville Center
Mon 08:49:16 PM 28.3975 -81.7764 271° West 281 323 14,900 1,450 Climbing Jacksonville Center
Mon 08:50:16 PM 28.4111 -81.8894 278° West 324 373 16,600 1,850 Climbing Jacksonville Center
Mon 08:51:16 PM 28.4267 -82.0192 278° West 369 425 18,600 1,750 Climbing Jacksonville Center
Mon 08:52:16 PM 28.4378 -82.1206 277° West 374 430 20,100 1,500 Climbing Jacksonville Center
Mon 08:53:16 PM 28.4550 -82.2456 279° West 388 447 21,600 1,650 Climbing Jacksonville Center
Mon 08:54:16 PM 28.4722 -82.3706 279° West 393 452 23,400 1,750 Climbing Jacksonville Center
Mon 08:55:16 PM 28.4875 -82.4981 278° West 404 465 25,100 1,600 Climbing Jacksonville Center
Mon 08:56:16 PM 28.5814 -82.5711 326° Northwest 384 442 26,600 1,650 Climbing Jacksonville Center
Mon 08:57:16 PM 28.7089 -82.6228 340° North 393 452 28,400 2,000 Climbing Jacksonville Center
Mon 08:58:16 PM 28.8133 -82.6722 337° Northwest 404 465 30,600 1,800 Climbing Jacksonville Center
Mon 08:59:16 PM 28.9158 -82.7194 338° Northwest 404 465 32,000 1,150 Climbing Jacksonville Center
Mon 09:00:16 PM 29.0203 -82.7692 337° Northwest 399 459 32,900 1,000 Climbing Jacksonville Center
Mon 09:01:16 PM 29.1244 -82.8164 338° Northwest 399 459 34,000 550 Climbing Jacksonville Center
Mon 09:02:16 PM 29.2289 -82.8639 338° Northwest 399 459 34,000  Level Jacksonville Center
Mon 09:03:16 PM 29.3333 -82.9117 338° Northwest 399 459 34,000  Level Jacksonville Center
Mon 09:04:16 PM 29.4378 -82.9617 337° Northwest 399 459 34,000  Level Jacksonville Center
Mon 09:05:16 PM 29.5442 -83.0119 338° Northwest 399 459 34,000  Level Jacksonville Center
Mon 09:06:16 PM 29.6483 -83.0622 337° Northwest 394 453 34,000  Level Jacksonville Center
Mon 09:07:16 PM 29.7547 -83.1103 339° North 401 461 34,000  Level Jacksonville Center
Mon 09:08:16 PM 29.8508 -83.1558 338° Northwest 401 461 34,000  Level Jacksonville Center
Mon 09:09:16 PM 29.9572 -83.2067 338° Northwest 400 460 34,000  Level Jacksonville Center
Mon 09:10:16 PM 30.0508 -83.2500 338° Northwest 395 455 34,000  Level Jacksonville Center
Mon 09:11:16 PM 30.1531 -83.2961 339° North 395 455 34,000  Level Jacksonville Center
Mon 09:12:16 PM 30.2594 -83.3472 337° Northwest 395 455 34,000  Level Jacksonville Center
Mon 09:13:16 PM 30.3636 -83.3981 337° Northwest 395 455 34,000  Level Jacksonville Center
Mon 09:14:16 PM 30.4700 -83.4469 338° Northwest 395 455 34,000  Level Jacksonville Center
Mon 09:15:16 PM 30.5761 -83.4981 337° Northwest 400 460 34,000  Level Jacksonville Center
Mon 09:16:16 PM 30.6844 -83.5497 338° Northwest 406 467 34,000  Level Jacksonville Center
Mon 09:17:16 PM 30.7886 -83.6011 337° Northwest 406 467 34,000  Level Jacksonville Center
Mon 09:18:16 PM 30.8989 -83.6553 337° Northwest 416 479 34,000  Level Jacksonville Center
Mon 09:19:16 PM 31.0072 -83.7094 337° Northwest 416 479 34,000  Level Jacksonville Center
Mon 09:20:16 PM 31.1175 -83.7614 338° Northwest 416 479 34,000  Level Jacksonville Center
Mon 09:22:31 PM 31.3667 -83.8833 337° Northwest 417 480 34,000  Level Atlanta Center
Mon 09:23:31 PM 31.4753 -83.9392 336° Northwest 417 480 34,000  Level Atlanta Center
Mon 09:24:31 PM 31.5900 -83.9781 344° North 417 480 34,000  Level Atlanta Center
Mon 09:25:31 PM 31.7133 -84.0047 350° North 423 487 34,000  Level Atlanta Center
Mon 09:26:31 PM 31.8322 -84.0292 350° North 434 499 34,000  Level Atlanta Center
Mon 09:27:31 PM 31.9511 -84.0558 349° North 434 499 34,000  Level Atlanta Center
Mon 09:28:31 PM 32.0700 -84.0806 350° North 429 494 34,000  Level Atlanta Center
Mon 09:29:31 PM 32.1994 -84.1100 349° North 429 494 34,000  Level Atlanta Center
Mon 09:30:31 PM 32.3164 -84.1372 349° North 429 494 34,000  Level Atlanta Center
Mon 09:31:31 PM 32.4353 -84.1619 350° North 429 494 34,000  Level Atlanta Center
Mon 09:32:31 PM 32.5542 -84.1892 349° North 429 494 34,000  Level Atlanta Center
Mon 09:33:31 PM 32.6711 -84.2189 348° North 429 494 34,000  Level Atlanta Center
Mon 09:34:31 PM 32.7900 -84.2439 350° North 429 494 34,000  Level Atlanta Center
Mon 09:35:31 PM 32.8944 -84.2689 349° North 429 494 34,000  Level Atlanta Center
Mon 09:36:31 PM 33.0153 -84.2964 349° North 434 499 34,000  Level Atlanta Center
Mon 09:37:31 PM 33.1344 -84.3217 350° North 434 499 34,000  Level Atlanta Center
Mon 09:38:31 PM 33.2533 -84.3494 349° North 428 493 34,000  Level Atlanta Center
Mon 09:39:31 PM 33.3742 -84.3772 349° North 434 499 34,000  Level Atlanta Center
Mon 09:40:31 PM 33.4889 -84.4050 349° North 434 499 34,000  Level Atlanta Center
Mon 09:41:31 PM 33.6183 -84.4356 349° North 429 494 34,000  Level Atlanta Center
Mon 09:42:31 PM 33.7372 -84.4658 348° North 428 493 34,000  Level Atlanta Center
Mon 09:43:31 PM 33.8561 -84.4942 349° North 428 493 34,000  Level Atlanta Center
Mon 09:44:31 PM 33.9750 -84.5197 350° North 428 493 34,000  Level Atlanta Center
Mon 09:45:31 PM 34.0897 -84.5481 348° North 428 493 34,000  Level Atlanta Center
Mon 09:46:31 PM 34.1958 -84.5739 349° North 433 498 34,000  Level Atlanta Center
Mon 09:47:31 PM 34.3106 -84.5997 349° North 423 487 34,000  Level Atlanta Center
Mon 09:48:31 PM 34.4231 -84.6281 348° North 417 480 34,000  Level Atlanta Center
Mon 09:49:31 PM 34.5358 -84.6539 349° North 410 472 34,000  Level Atlanta Center
Mon 09:50:31 PM 34.6586 -84.6853 348° North 410 472 34,000  Level Atlanta Center
Mon 09:51:31 PM 34.7669 -84.7164 347° North 400 460 34,000  Level Atlanta Center
Mon 09:52:31 PM 34.8775 -84.7428 349° North 400 460 34,000  Level Atlanta Center
Mon 09:53:31 PM 34.9881 -84.7714 348° North 400 460 34,000  Level Atlanta Center
Mon 09:54:31 PM 35.1006 -84.8003 348° North 400 460 34,000  Level Atlanta Center
Mon 09:55:31 PM 35.2108 -84.8267 349° North 400 460 34,000  Level Atlanta Center
Mon 09:56:31 PM 35.3233 -84.8533 349° North 405 466 34,000  Level Atlanta Center
Mon 09:58:00 PM 35.4822 -84.8920 349° North  Level FlightAware Approximate
Mon 09:58:31 PM 35.5483 -84.9117 349° North 411 473 34,000  Level Atlanta Center
Mon 09:59:31 PM 35.6586 -84.9411 348° North 411 473 34,000  Level Atlanta Center
Mon 10:01:54 PM 35.9147 -85.0036 349° North 417 480 34,000  Level Indianapolis Center
Mon 10:02:55 PM 36.0294 -85.0322 349° North 417 480 34,000  Level Indianapolis Center
Mon 10:03:56 PM 36.1428 -85.0608 348° North 414 476 34,000  Level Indianapolis Center
Mon 10:04:57 PM 36.2578 -85.0878 349° North 417 480 34,000  Level Indianapolis Center
Mon 10:05:58 PM 36.3944 -85.1158 351° North 415 478 34,000  Level Indianapolis Center
Mon 10:06:59 PM 36.5092 -85.1406 350° North 416 479 34,000  Level Indianapolis Center
Mon 10:08:00 PM 36.6242 -85.1653 350° North 418 481 34,000  Level Indianapolis Center
Mon 10:09:01 PM 36.7400 -85.1906 350° North 422 486 34,000  Level Indianapolis Center
Mon 10:10:02 PM 36.8544 -85.2147 350° North 418 481 34,000  Level Indianapolis Center
Mon 10:11:03 PM 36.9700 -85.2406 350° North 422 486 34,000  Level Indianapolis Center
Mon 10:12:04 PM 37.0839 -85.2658 350° North 418 481 34,000  Level Indianapolis Center
Mon 10:13:05 PM 37.1994 -85.2911 350° North 419 482 34,000  Level Indianapolis Center
Mon 10:14:06 PM 37.3153 -85.3169 350° North 419 482 34,000  Level Indianapolis Center
Mon 10:15:07 PM 37.4314 -85.3417 350° North 420 483 34,000  Level Indianapolis Center
Mon 10:16:08 PM 37.5461 -85.3672 350° North 418 481 34,000  Level Indianapolis Center
Mon 10:17:09 PM 37.6617 -85.3942 350° North 417 480 34,000  Level Indianapolis Center
Mon 10:18:10 PM 37.7956 -85.4250 350° North 417 480 34,000  Level Indianapolis Center
Mon 10:19:11 PM 37.9069 -85.4478 351° North 428 493 34,000  Level Indianapolis Center
Mon 10:20:12 PM 38.0225 -85.4744 350° North 422 486 34,000  Level Indianapolis Center
Mon 10:21:13 PM 38.1392 -85.5000 350° North 425 489 34,000  Level Indianapolis Center
Mon 10:22:14 PM 38.2542 -85.5272 349° North 422 486 34,000  Level Indianapolis Center
Mon 10:23:15 PM 38.3711 -85.5519 351° North 424 488 34,000  Level Indianapolis Center
Mon 10:24:16 PM 38.4875 -85.5794 350° North 425 489 34,000  Level Indianapolis Center
Mon 10:25:17 PM 38.6033 -85.6053 350° North 422 486 34,000 -344 Level Indianapolis Center
Mon 10:26:18 PM 38.7222 -85.6325 350° North 424 488 33,300 -787 Descending Indianapolis Center
Mon 10:27:19 PM 38.8392 -85.6586 350° North 425 489 32,400 -1,033 Descending Indianapolis Center
Mon 10:28:20 PM 38.9758 -85.6917 349° North 424 488 31,200 -1,082 Descending Indianapolis Center
Mon 10:29:21 PM 39.0931 -85.7183 350° North 424 488 30,200 -590 Descending Indianapolis Center
Mon 10:30:22 PM 39.2092 -85.7453 350° North 421 484 30,000 -98 Descending Indianapolis Center
Mon 10:31:23 PM 39.3242 -85.7711 350° North 419 482 30,000  Level Indianapolis Center
Mon 10:32:24 PM 39.4403 -85.7992 349° North 422 486 30,000  Level Indianapolis Center
Mon 10:33:25 PM 39.5567 -85.8258 350° North 423 487 30,000  Level Indianapolis Center
Mon 10:34:26 PM 39.6722 -85.8528 350° North 422 486 30,000 -541 Level Indianapolis Center
Mon 10:35:27 PM 39.7869 -85.8797 350° North 420 483 28,900 -1,623 Descending Indianapolis Center
Mon 10:36:28 PM 39.8964 -85.9069 349° North 405 466 26,700 -2,164 Descending Indianapolis Center
Mon 10:37:29 PM 40.0022 -85.9317 350° North 391 450 24,500 -1,328 Descending Indianapolis Center
Mon 10:38:30 PM 40.1039 -85.9564 349° North 373 429 24,000 -313 Descending Indianapolis Center
Mon 10:39:05 PM 40.1717 -85.9711 351° North 370 426 24,000  Level Chicago Center
Mon 10:40:06 PM 40.2758 -85.9953 350° North 378 435 24,000 -295 Level Chicago Center
Mon 10:41:07 PM 40.3686 -86.0594 332° Northwest 378 435 23,400 -787 Descending Chicago Center
Mon 10:42:08 PM 40.4558 -86.1414 324° Northwest 385 443 22,400 -927 Descending Chicago Center
Mon 10:43:10 PM 40.5433 -86.2228 325° Northwest 384 442 21,500 -683 Descending Chicago Center
Mon 10:44:11 PM 40.6272 -86.3008 325° Northwest 372 428 21,000 -246 Descending Chicago Center
Mon 10:45:12 PM 40.7106 -86.3819 324° Northwest 353 406 21,000  Level Chicago Center
Mon 10:46:13 PM 40.7889 -86.4575 324° Northwest 349 402 21,000 -492 Level Chicago Center
Mon 10:47:14 PM 40.8669 -86.5322 324° Northwest 346 398 20,000 -1,721 Descending Chicago Center
Mon 10:48:15 PM 40.9469 -86.6083 324° Northwest 351 404 17,500 -2,361 Descending Chicago Center
Mon 10:49:16 PM 41.0231 -86.6808 324° Northwest 340 391 15,200 -2,066 Descending Chicago Center
Mon 10:50:17 PM 41.0953 -86.7492 325° Northwest 328 377 13,300 -2,016 Descending Chicago Center
Mon 10:51:18 PM 41.1786 -86.8300 324° Northwest 313 360 11,100 -1,525 Descending Chicago Center
Mon 10:52:19 PM 41.2461 -86.8936 325° Northwest 303 349 10,200 -934 Descending Chicago Center
Mon 10:53:20 PM 41.3067 -86.9550 323° Northwest 282 325 9,200 -984 Descending Chicago Center
Mon 10:54:21 PM 41.3656 -87.0131 324° Northwest 270 311 8,200 -1,033 Descending Chicago Center
Mon 10:55:22 PM 41.4286 -87.0736 324° Northwest 277 319 7,100 -1,033 Descending Chicago Center
Mon 10:56:23 PM 41.4831 -87.1450 316° Northwest 279 321 6,100 -1,011 Descending Chicago Center
Mon 10:56:57 PM 41.5000 -87.2000 292° West 270 311 5,500 -1,021 Descending Chicago TRACON
Mon 10:57:57 PM 41.5333 -87.2833 298° West 272 313 4,500 -750 Descending Chicago TRACON
Mon 10:58:57 PM 41.5833 -87.3667 309° West 245 282 4,000 -337 Descending Chicago TRACON
Mon 10:59:26 PM 41.5867 -87.3967 278° West 250 288 4,000  Level Chicago Center
Mon 11:00:27 PM 41.6222 -87.4822 299° West 229 264 4,000  Level Chicago Center
Mon 11:01:28 PM 41.6497 -87.5464 300° West 215 247 4,000 -344 Level Chicago Center
Mon 11:02:29 PM 41.6747 -87.6008 302° West 190 219 3,300 -947 Descending Chicago Center
Mon 11:03:03 PM 41.7000 -87.6333 316° Northwest 195 224 2,500 -830 Descending Chicago TRACON
Mon 11:04:03 PM 41.7500 -87.6667 334° Northwest 224 258 2,000 -250 Descending Chicago TRACON
Mon 11:05:03 PM 41.8000 -87.6667 360° North 209 241 2,000 -397 Level Chicago TRACON
Mon 11:06:04 PM 41.8167 -87.7167 294° West 152 175 1,200 -787 Descending Chicago TRACON

Login

Don't have an account? Register now (free) for customized features, flight alerts, and more!